Time;durP1;ratioP1;P1;durP2;ratioP2;P2;SDS_P1;SDS_P2;PMS_P1;PMS_P2;Temp;Humidity;BMP_temperature;BMP_pressure;BME280_temperature;BME280_humidity;BME280_pressure;Samples;Min_cycle;Max_cycle;Signal;HPM_P1;HPM_P2
2021/08/18 00:00:47;;;;;;;;;;;13.00;99.90;;;;;;5092083;28;19934;-76
2021/08/18 00:03:12;;;;;;;;;;;13.00;99.90;;;;;;5092024;28;19908;-76
2021/08/18 00:05:38;;;;;;;;;;;13.00;99.90;;;;;;5091880;28;19908;-76
2021/08/18 00:08:05;;;;;;;;;;;13.00;99.90;;;;;;5091779;28;19908;-76
2021/08/18 00:10:31;;;;;;;;;;;13.00;99.90;;;;;;5091629;28;20314;-75
2021/08/18 00:12:57;;;;;;;;;;;13.00;99.90;;;;;;5091976;28;19943;-75
2021/08/18 00:15:23;;;;;;;;;;;13.00;99.90;;;;;;5086280;28;19908;-75
2021/08/18 00:17:48;;;;;;;;;;;13.00;99.90;;;;;;5109368;28;20317;-75
2021/08/18 00:20:14;;;;;;;;;;;13.00;99.90;;;;;;5111874;28;19908;-75
2021/08/18 00:22:39;;;;;;;;;;;13.00;99.90;;;;;;5112153;28;20308;-75
2021/08/18 00:25:05;;;;;;;;;;;13.00;99.90;;;;;;5112097;28;19930;-75
2021/08/18 00:27:31;;;;;;;;;;;13.00;99.90;;;;;;5111691;28;19911;-75
2021/08/18 00:29:56;;;;;;;;;;;13.00;99.90;;;;;;5111930;28;20006;-75
2021/08/18 00:32:22;;;;;;;;;;;13.00;99.90;;;;;;5111900;28;20423;-76
2021/08/18 00:34:48;;;;;;;;;;;13.00;99.90;;;;;;5111837;28;20371;-76
2021/08/18 00:37:13;;;;;;;;;;;13.00;99.90;;;;;;5111758;28;20314;-76
2021/08/18 00:39:39;;;;;;;;;;;13.00;99.90;;;;;;5111788;28;19941;-76
2021/08/18 00:42:04;;;;;;;;;;;13.00;99.90;;;;;;5111831;28;19973;-76
2021/08/18 00:44:31;;;;;;;;;;;13.00;99.90;;;;;;5107913;28;20367;-76
2021/08/18 00:46:58;;;;;;;;;;;13.00;99.90;;;;;;5090786;28;19919;-76
2021/08/18 00:49:24;;;;;;;;;;;13.00;99.90;;;;;;5091388;28;19948;-76
2021/08/18 00:51:50;;;;;;;;;;;13.00;99.90;;;;;;5091293;28;20324;-76
2021/08/18 00:54:16;;;;;;;;;;;13.00;99.90;;;;;;5086136;28;19908;-76
2021/08/18 00:56:41;;;;;;;;;;;12.90;99.90;;;;;;5091010;28;19956;-76
2021/08/18 00:59:08;;;;;;;;;;;13.00;99.90;;;;;;5091339;28;19991;-75
2021/08/18 01:01:33;;;;;;;;;;;13.00;99.90;;;;;;5091198;28;19954;-76
2021/08/18 01:03:59;;;;;;;;;;;12.90;99.90;;;;;;5091211;28;19908;-76
2021/08/18 01:06:25;;;;;;;;;;;12.90;99.90;;;;;;5091001;28;19908;-76
2021/08/18 01:08:51;;;;;;;;;;;12.90;99.90;;;;;;5091416;28;19913;-76
2021/08/18 01:11:16;;;;;;;;;;;12.90;99.90;;;;;;5091124;28;19912;-76
2021/08/18 01:13:43;;;;;;;;;;;12.90;99.90;;;;;;5091266;28;19946;-76
2021/08/18 01:16:09;;;;;;;;;;;12.90;99.90;;;;;;5090944;28;19909;-76
2021/08/18 01:18:34;;;;;;;;;;;12.80;99.90;;;;;;5091084;28;19922;-76
2021/08/18 01:21:00;;;;;;;;;;;12.90;99.90;;;;;;5091184;28;19931;-76
2021/08/18 01:23:25;;;;;;;;;;;12.80;99.90;;;;;;5086445;28;19908;-76
2021/08/18 01:25:52;;;;;;;;;;;12.90;99.90;;;;;;5090949;28;19916;-76
2021/08/18 01:28:17;;;;;;;;;;;12.90;99.90;;;;;;5093173;28;19912;-76
2021/08/18 01:30:43;;;;;;;;;;;12.90;99.90;;;;;;5094729;28;19912;-76
2021/08/18 01:33:13;;;;;;;;;;;12.90;99.90;;;;;;5094790;28;19915;-76
2021/08/18 01:35:40;;;;;;;;;;;12.80;99.90;;;;;;5094885;28;19994;-76
2021/08/18 01:38:06;;;;;;;;;;;12.90;99.90;;;;;;5094318;28;19909;-76
2021/08/18 01:40:32;;;;;;;;;;;12.80;99.90;;;;;;5094560;28;20007;-76
2021/08/18 01:42:58;;;;;;;;;;;12.90;99.90;;;;;;5092006;28;19912;-76
2021/08/18 01:45:24;;;;;;;;;;;12.90;99.90;;;;;;5094358;28;20349;-76
2021/08/18 01:47:50;;;;;;;;;;;12.80;99.90;;;;;;5086647;28;20388;-76
2021/08/18 01:50:16;;;;;;;;;;;12.80;99.90;;;;;;5114596;28;19912;-76
2021/08/18 01:52:41;;;;;;;;;;;12.90;99.90;;;;;;5114763;28;20426;-76
2021/08/18 01:55:07;;;;;;;;;;;12.80;99.90;;;;;;5115222;28;20381;-76
2021/08/18 01:57:33;;;;;;;;;;;12.90;99.90;;;;;;5114734;28;19912;-76
2021/08/18 01:59:58;;;;;;;;;;;12.80;99.90;;;;;;5114734;28;19915;-76
2021/08/18 02:02:30;;;;;;;;;;;12.80;99.90;;;;;;5108280;28;20030;-76
2021/08/18 02:04:56;;;;;;;;;;;12.80;99.90;;;;;;5093924;28;19908;-76
2021/08/18 02:07:21;;;;;;;;;;;12.80;99.90;;;;;;5093789;28;19923;-76
2021/08/18 02:09:47;;;;;;;;;;;12.80;99.90;;;;;;5094035;28;19954;-76
2021/08/18 02:12:12;;;;;;;;;;;12.80;99.90;;;;;;5094125;28;19940;-76
2021/08/18 02:14:38;;;;;;;;;;;12.80;99.90;;;;;;5093972;28;19915;-76
2021/08/18 02:17:04;;;;;;;;;;;12.80;99.90;;;;;;5093608;28;19908;-76
2021/08/18 02:19:29;;;;;;;;;;;12.70;99.90;;;;;;5093904;28;19908;-76
2021/08/18 02:21:54;;;;;;;;;;;12.70;99.90;;;;;;5093730;28;19915;-76
2021/08/18 02:24:20;;;;;;;;;;;12.70;99.90;;;;;;5085479;28;19934;-76
2021/08/18 02:26:46;;;;;;;;;;;12.70;99.90;;;;;;5093243;28;19916;-76
2021/08/18 02:29:11;;;;;;;;;;;12.60;99.90;;;;;;5093711;28;19912;-76
2021/08/18 02:31:36;;;;;;;;;;;12.60;99.90;;;;;;5093523;28;20003;-76
2021/08/18 02:34:02;;;;;;;;;;;12.60;99.90;;;;;;5093687;28;19908;-76
2021/08/18 02:36:28;;;;;;;;;;;12.60;99.90;;;;;;5093642;28;20336;-76
2021/08/18 02:38:53;;;;;;;;;;;12.60;99.90;;;;;;5092342;28;20061;-76
2021/08/18 02:41:19;;;;;;;;;;;12.60;99.90;;;;;;5093444;28;20352;-76
2021/08/18 02:43:44;;;;;;;;;;;12.60;99.90;;;;;;5093402;28;19908;-76
2021/08/18 02:46:10;;;;;;;;;;;12.60;99.90;;;;;;5092805;28;20335;-76
2021/08/18 02:48:35;;;;;;;;;;;12.60;99.90;;;;;;5092968;28;19951;-76
2021/08/18 02:51:01;;;;;;;;;;;12.70;99.90;;;;;;5091712;28;19955;-76
2021/08/18 02:53:26;;;;;;;;;;;12.70;99.90;;;;;;5087017;28;19912;-76
2021/08/18 02:55:52;;;;;;;;;;;12.70;99.90;;;;;;5109805;28;19907;-76
2021/08/18 02:58:17;;;;;;;;;;;12.70;99.90;;;;;;5113316;28;19962;-76
2021/08/18 03:00:43;;;;;;;;;;;12.70;99.90;;;;;;5113251;28;19953;-76
2021/08/18 03:03:08;;;;;;;;;;;12.70;99.90;;;;;;5113421;28;19914;-76
2021/08/18 03:05:34;;;;;;;;;;;12.70;99.90;;;;;;5113304;28;19914;-76
2021/08/18 03:07:59;;;;;;;;;;;12.70;99.90;;;;;;5112999;28;19908;-76
2021/08/18 03:10:25;;;;;;;;;;;12.70;99.90;;;;;;5113174;28;19968;-76
2021/08/18 03:12:51;;;;;;;;;;;12.70;99.90;;;;;;5113268;28;20268;-76
2021/08/18 03:15:16;;;;;;;;;;;12.70;99.90;;;;;;5113091;28;19912;-76
2021/08/18 03:17:42;;;;;;;;;;;12.70;99.90;;;;;;5112748;28;20000;-76
2021/08/18 03:20:07;;;;;;;;;;;12.70;99.90;;;;;;5094776;28;19962;-76
2021/08/18 03:22:33;;;;;;;;;;;12.70;99.90;;;;;;5092582;28;19908;-76
2021/08/18 03:24:59;;;;;;;;;;;12.70;99.90;;;;;;5093001;28;20003;-76
2021/08/18 03:27:24;;;;;;;;;;;12.70;99.90;;;;;;5092674;28;20272;-76
2021/08/18 03:29:50;;;;;;;;;;;12.70;99.90;;;;;;5092417;28;20323;-76
2021/08/18 03:32:15;;;;;;;;;;;12.70;99.90;;;;;;5092692;28;20021;-76
2021/08/18 03:34:41;;;;;;;;;;;12.70;99.90;;;;;;5091182;28;20277;-76
2021/08/18 03:37:06;;;;;;;;;;;12.70;99.90;;;;;;5092139;28;19990;-76
2021/08/18 03:39:32;;;;;;;;;;;12.70;99.90;;;;;;5092419;28;20159;-76
2021/08/18 03:41:57;;;;;;;;;;;12.70;99.90;;;;;;5092335;28;19908;-76
2021/08/18 03:44:23;;;;;;;;;;;12.70;99.90;;;;;;5092193;28;19908;-76
2021/08/18 03:46:48;;;;;;;;;;;12.70;99.90;;;;;;5090707;28;19923;-76
2021/08/18 03:49:14;;;;;;;;;;;12.70;99.90;;;;;;5092201;28;19908;-76
2021/08/18 03:51:39;;;;;;;;;;;12.70;99.90;;;;;;5091655;28;20121;-76
2021/08/18 03:54:05;;;;;;;;;;;12.60;99.90;;;;;;5092147;28;20037;-76
2021/08/18 03:56:30;;;;;;;;;;;12.60;99.90;;;;;;5091817;28;20285;-76
2021/08/18 03:58:56;;;;;;;;;;;12.60;99.90;;;;;;5091895;28;20284;-76
2021/08/18 04:01:21;;;;;;;;;;;12.60;99.90;;;;;;5091980;28;19915;-76
2021/08/18 04:03:47;;;;;;;;;;;12.60;99.90;;;;;;5091919;28;20328;-76
2021/08/18 04:06:12;;;;;;;;;;;12.60;99.90;;;;;;5091465;28;19914;-76
2021/08/18 04:08:38;;;;;;;;;;;12.70;99.90;;;;;;5091805;28;19908;-76
2021/08/18 04:11:09;;;;;;;;;;;12.70;99.90;;;;;;5091687;28;19957;-76
2021/08/18 04:13:34;;;;;;;;;;;12.70;99.90;;;;;;5091801;28;20311;-76
2021/08/18 04:16:03;;;;;;;;;;;12.70;99.90;;;;;;5091131;28;19927;-76
2021/08/18 04:18:28;;;;;;;;;;;12.70;99.90;;;;;;5091581;28;19908;-76
2021/08/18 04:20:54;;;;;;;;;;;12.70;99.90;;;;;;5091622;28;19908;-76
2021/08/18 04:23:19;;;;;;;;;;;12.70;99.90;;;;;;5091750;28;19951;-76
2021/08/18 04:25:45;;;;;;;;;;;12.70;99.90;;;;;;5091575;28;19909;-76
2021/08/18 04:28:10;;;;;;;;;;;12.80;99.90;;;;;;5091129;28;19912;-76
2021/08/18 04:30:36;;;;;;;;;;;12.80;99.90;;;;;;5091346;28;20261;-76
2021/08/18 04:33:01;;;;;;;;;;;12.80;99.90;;;;;;5091539;28;19915;-76
2021/08/18 04:35:27;;;;;;;;;;;12.80;99.90;;;;;;5091683;28;19915;-76
2021/08/18 04:37:52;;;;;;;;;;;12.80;99.90;;;;;;5091147;28;19996;-76
2021/08/18 04:40:21;;;;;;;;;;;12.80;99.90;;;;;;5090130;28;19961;-76
2021/08/18 04:42:47;;;;;;;;;;;12.80;99.90;;;;;;5091354;28;19908;-76
2021/08/18 04:45:13;;;;;;;;;;;12.70;99.90;;;;;;5091193;28;20002;-76
2021/08/18 04:47:39;;;;;;;;;;;12.80;99.90;;;;;;5089475;28;19912;-76
2021/08/18 04:50:05;;;;;;;;;;;12.80;99.90;;;;;;5091192;28;20007;-76
2021/08/18 04:52:31;;;;;;;;;;;12.70;99.90;;;;;;5091386;28;19912;-76
2021/08/18 04:54:56;;;;;;;;;;;12.70;99.90;;;;;;5091678;28;19908;-76
2021/08/18 04:57:22;;;;;;;;;;;12.70;99.90;;;;;;5090941;28;20338;-76
2021/08/18 04:59:47;;;;;;;;;;;12.70;99.90;;;;;;5091255;28;19908;-76
2021/08/18 05:02:13;;;;;;;;;;;12.70;99.90;;;;;;5091852;28;19915;-76
2021/08/18 05:04:38;;;;;;;;;;;12.70;99.90;;;;;;5095335;28;20329;-76
2021/08/18 05:07:04;;;;;;;;;;;12.70;99.90;;;;;;5094912;28;20292;-76
2021/08/18 05:09:29;;;;;;;;;;;12.70;99.90;;;;;;5095236;28;19915;-76
2021/08/18 05:11:56;;;;;;;;;;;12.70;99.90;;;;;;5094846;28;20053;-76
2021/08/18 05:14:24;;;;;;;;;;;12.80;99.90;;;;;;5095170;28;19912;-76
2021/08/18 05:16:49;;;;;;;;;;;12.80;99.90;;;;;;5095571;28;19908;-76
2021/08/18 05:19:15;;;;;;;;;;;12.90;99.90;;;;;;5115461;28;19915;-76
2021/08/18 05:21:41;;;;;;;;;;;12.90;99.90;;;;;;5115300;28;19919;-76
2021/08/18 05:24:06;;;;;;;;;;;13.00;99.90;;;;;;5115265;28;20249;-76
2021/08/18 05:26:32;;;;;;;;;;;13.10;99.90;;;;;;5114772;28;19996;-76
2021/08/18 05:28:57;;;;;;;;;;;13.10;99.90;;;;;;5114744;28;19954;-76
2021/08/18 05:31:23;;;;;;;;;;;13.20;99.90;;;;;;5115157;28;19948;-76
2021/08/18 05:33:49;;;;;;;;;;;13.20;99.90;;;;;;5115163;28;19915;-76
2021/08/18 05:36:14;;;;;;;;;;;13.20;99.90;;;;;;5114999;28;19957;-76
2021/08/18 05:38:40;;;;;;;;;;;13.20;99.90;;;;;;5115287;28;20392;-76
2021/08/18 05:41:05;;;;;;;;;;;13.30;99.90;;;;;;5114955;28;19922;-76
2021/08/18 05:43:31;;;;;;;;;;;13.30;99.90;;;;;;5115162;28;19924;-76
2021/08/18 05:45:56;;;;;;;;;;;13.40;99.90;;;;;;5105965;28;20433;-76
2021/08/18 05:48:21;;;;;;;;;;;13.40;99.90;;;;;;5100249;28;19908;-76
2021/08/18 05:50:47;;;;;;;;;;;13.40;99.90;;;;;;5094502;28;20361;-76
2021/08/18 05:53:17;;;;;;;;;;;13.50;99.90;;;;;;5094450;28;20297;-76
2021/08/18 05:55:43;;;;;;;;;;;13.60;99.90;;;;;;5094495;28;20292;-76
2021/08/18 05:58:09;;;;;;;;;;;13.60;99.90;;;;;;5094128;28;19908;-76
2021/08/18 06:00:34;;;;;;;;;;;13.70;99.90;;;;;;5094318;28;19908;-76
2021/08/18 06:03:00;;;;;;;;;;;13.70;99.90;;;;;;5094315;28;19912;-76
2021/08/18 06:05:25;;;;;;;;;;;13.80;99.90;;;;;;5094257;28;20372;-76
2021/08/18 06:07:51;;;;;;;;;;;13.80;99.90;;;;;;5093897;28;20314;-76
2021/08/18 06:10:16;;;;;;;;;;;13.90;99.90;;;;;;5092214;28;19912;-76
2021/08/18 06:12:41;;;;;;;;;;;14.00;99.90;;;;;;5093622;28;19908;-77
2021/08/18 06:15:07;;;;;;;;;;;14.00;99.90;;;;;;5087387;28;19912;-76
2021/08/18 06:17:33;;;;;;;;;;;14.10;99.90;;;;;;5102404;28;19931;-76
2021/08/18 06:19:58;;;;;;;;;;;14.10;99.90;;;;;;5104045;28;20368;-76
2021/08/18 06:22:24;;;;;;;;;;;14.20;99.90;;;;;;5112585;28;19908;-76
2021/08/18 06:24:51;;;;;;;;;;;14.20;99.90;;;;;;5113525;28;20401;-76
2021/08/18 06:27:17;;;;;;;;;;;14.30;99.90;;;;;;5113305;28;19908;-76
2021/08/18 06:29:42;;;;;;;;;;;14.40;99.90;;;;;;5116896;28;20002;-76
2021/08/18 06:32:08;;;;;;;;;;;14.60;99.90;;;;;;5117592;28;19911;-76
2021/08/18 06:34:34;;;;;;;;;;;14.70;99.90;;;;;;5118492;28;19911;-76
2021/08/18 06:37:02;;;;;;;;;;;14.80;99.90;;;;;;5117666;28;19914;-76
2021/08/18 06:39:31;;;;;;;;;;;14.90;99.90;;;;;;5113438;28;20315;-76
2021/08/18 06:41:57;;;;;;;;;;;15.00;99.90;;;;;;5088145;28;19908;-76
2021/08/18 06:44:22;;;;;;;;;;;15.10;99.90;;;;;;5108743;28;19916;-77
2021/08/18 06:46:48;;;;;;;;;;;15.10;99.90;;;;;;5110189;28;20372;-77
2021/08/18 06:49:13;;;;;;;;;;;15.20;99.90;;;;;;5113248;28;20418;-76
2021/08/18 06:51:39;;;;;;;;;;;15.30;99.90;;;;;;5113653;28;19911;-76
2021/08/18 06:54:05;;;;;;;;;;;15.40;99.90;;;;;;5113579;28;19908;-76
2021/08/18 06:56:30;;;;;;;;;;;15.50;99.90;;;;;;5112443;28;19960;-76
2021/08/18 06:58:56;;;;;;;;;;;15.50;99.90;;;;;;5113540;28;19977;-77
2021/08/18 07:01:21;;;;;;;;;;;15.60;99.90;;;;;;5112077;28;19908;-76
2021/08/18 07:03:47;;;;;;;;;;;15.70;99.90;;;;;;5113374;28;19915;-76
2021/08/18 07:06:12;;;;;;;;;;;15.70;99.90;;;;;;5112910;28;20364;-76
2021/08/18 07:08:38;;;;;;;;;;;15.80;99.90;;;;;;5112897;28;19958;-76
2021/08/18 07:11:03;;;;;;;;;;;15.90;99.90;;;;;;5109262;28;19935;-77
2021/08/18 07:13:29;;;;;;;;;;;15.90;99.90;;;;;;5091388;28;20045;-77
2021/08/18 07:15:54;;;;;;;;;;;15.90;99.90;;;;;;5093985;28;19912;-77
2021/08/18 07:18:22;;;;;;;;;;;16.00;99.90;;;;;;5098767;28;19977;-76
2021/08/18 07:20:47;;;;;;;;;;;15.90;99.90;;;;;;5092688;28;19935;-76
2021/08/18 07:23:13;;;;;;;;;;;16.10;99.90;;;;;;5092793;28;19915;-77
2021/08/18 07:25:39;;;;;;;;;;;16.20;99.90;;;;;;5091805;28;19908;-77
2021/08/18 07:28:04;;;;;;;;;;;16.40;99.90;;;;;;5090779;28;19908;-77
2021/08/18 07:30:30;;;;;;;;;;;16.70;99.90;;;;;;5092023;28;19919;-77
2021/08/18 07:32:55;;;;;;;;;;;17.10;99.90;;;;;;5090965;28;19908;-77
2021/08/18 07:35:21;;;;;;;;;;;17.50;99.90;;;;;;5092199;28;19919;-77
2021/08/18 07:37:47;;;;;;;;;;;17.50;99.90;;;;;;5091632;28;20416;-77
2021/08/18 07:40:13;;;;;;;;;;;17.50;99.90;;;;;;5085948;28;19945;-77
2021/08/18 07:42:38;;;;;;;;;;;17.30;99.90;;;;;;5091423;28;19934;-77
2021/08/18 07:45:04;;;;;;;;;;;17.20;99.90;;;;;;5090088;28;19958;-77
2021/08/18 07:47:30;;;;;;;;;;;17.10;99.90;;;;;;5098272;28;20020;-77
2021/08/18 07:49:55;;;;;;;;;;;17.10;99.90;;;;;;5112365;28;20275;-77
2021/08/18 07:52:21;;;;;;;;;;;17.30;99.90;;;;;;5112098;28;19911;-77
2021/08/18 07:54:46;;;;;;;;;;;17.50;99.90;;;;;;5112232;28;19930;-77
2021/08/18 07:57:13;;;;;;;;;;;17.50;99.90;;;;;;5111948;28;19912;-77
2021/08/18 07:59:39;;;;;;;;;;;17.30;99.90;;;;;;5112230;28;19915;-77
2021/08/18 08:02:04;;;;;;;;;;;17.20;99.90;;;;;;5092813;28;19908;-77
2021/08/18 08:04:30;;;;;;;;;;;17.10;99.90;;;;;;5091515;28;19908;-77
2021/08/18 08:06:55;;;;;;;;;;;17.00;99.90;;;;;;5090986;28;19934;-77
2021/08/18 08:09:21;;;;;;;;;;;17.10;99.90;;;;;;5091766;28;19916;-77
2021/08/18 08:11:46;;;;;;;;;;;17.30;99.90;;;;;;5090904;28;19912;-77
2021/08/18 08:14:12;;;;;;;;;;;17.60;99.90;;;;;;5091588;28;19962;-77
2021/08/18 08:16:38;;;;;;;;;;;17.50;99.90;;;;;;5099158;28;19994;-77
2021/08/18 08:19:04;;;;;;;;;;;17.50;99.90;;;;;;5111335;28;20364;-77
2021/08/18 08:21:30;;;;;;;;;;;17.50;99.90;;;;;;5111182;28;20394;-77
2021/08/18 08:23:56;;;;;;;;;;;17.40;99.90;;;;;;5111755;28;19990;-77
2021/08/18 08:26:21;;;;;;;;;;;17.40;99.90;;;;;;5111470;28;20002;-77
2021/08/18 08:28:47;;;;;;;;;;;17.30;99.90;;;;;;5111690;28;20329;-77
2021/08/18 08:31:12;;;;;;;;;;;17.40;99.90;;;;;;5111564;28;20324;-77
2021/08/18 08:33:38;;;;;;;;;;;17.50;99.90;;;;;;5111481;28;19908;-78
2021/08/18 08:36:03;;;;;;;;;;;17.70;99.90;;;;;;5110773;28;19914;-78
2021/08/18 08:38:29;;;;;;;;;;;17.80;99.90;;;;;;5111990;28;19951;-77
2021/08/18 08:40:55;;;;;;;;;;;18.10;99.90;;;;;;5093956;28;19935;-77
2021/08/18 08:43:22;;;;;;;;;;;18.10;99.90;;;;;;5091038;28;20005;-77
2021/08/18 08:45:47;;;;;;;;;;;18.00;99.90;;;;;;5099023;28;19981;-77
2021/08/18 08:48:17;;;;;;;;;;;18.00;99.90;;;;;;5097759;28;19955;-78
2021/08/18 08:50:43;;;;;;;;;;;17.70;99.90;;;;;;5090708;28;19919;-77
2021/08/18 08:53:09;;;;;;;;;;;17.50;99.90;;;;;;5090820;28;19911;-77
2021/08/18 08:55:34;;;;;;;;;;;17.70;99.90;;;;;;5090577;28;20353;-77
2021/08/18 08:58:00;;;;;;;;;;;17.80;99.90;;;;;;5088709;28;19963;-77
2021/08/18 09:00:25;;;;;;;;;;;17.90;99.90;;;;;;5090553;28;20448;-77
2021/08/18 09:03:06;;;;;;;;;;;17.90;99.90;;;;;;5091422;28;19998;-77
2021/08/18 09:05:32;;;;;;;;;;;17.90;99.90;;;;;;5091482;28;19970;-77
2021/08/18 09:07:58;;;;;;;;;;;17.90;99.90;;;;;;5090551;28;20372;-77
2021/08/18 09:10:23;;;;;;;;;;;17.80;99.90;;;;;;5090748;28;19912;-77
2021/08/18 09:12:49;;;;;;;;;;;17.60;99.90;;;;;;5090770;28;20280;-77
2021/08/18 09:15:18;;;;;;;;;;;17.60;99.90;;;;;;5093772;28;19919;-78
2021/08/18 09:17:45;;;;;;;;;;;17.60;99.90;;;;;;5108674;28;19933;-78
2021/08/18 09:20:24;;;;;;;;;;;17.50;99.90;;;;;;5110415;28;20070;-77
2021/08/18 09:23:00;;;;;;;;;;;17.50;99.90;;;;;;5110645;28;19908;-77
2021/08/18 09:25:27;;;;;;;;;;;17.60;99.90;;;;;;5109255;28;19908;-78
2021/08/18 09:27:52;;;;;;;;;;;17.70;99.90;;;;;;5110527;28;19922;-78
2021/08/18 09:30:20;;;;;;;;;;;17.90;99.90;;;;;;5108971;28;19911;-78
2021/08/18 09:32:45;;;;;;;;;;;18.10;99.90;;;;;;5111786;28;20000;-78
2021/08/18 09:35:12;;;;;;;;;;;18.40;99.90;;;;;;5111699;28;19954;-78
2021/08/18 09:37:39;;;;;;;;;;;18.50;99.90;;;;;;5110325;28;20414;-78
2021/08/18 09:40:15;;;;;;;;;;;18.60;99.90;;;;;;5097990;28;19915;-78
2021/08/18 09:42:41;;;;;;;;;;;18.80;99.90;;;;;;5095447;28;20320;-78
2021/08/18 09:45:14;;;;;;;;;;;18.90;99.90;;;;;;5088841;28;19954;-78
2021/08/18 09:47:55;;;;;;;;;;;19.00;99.90;;;;;;5108065;28;19933;-78
2021/08/18 09:50:22;;;;;;;;;;;19.00;99.90;;;;;;5115055;28;19926;-78
2021/08/18 09:52:48;;;;;;;;;;;19.10;99.90;;;;;;5115040;28;19954;-78
2021/08/18 09:55:13;;;;;;;;;;;19.30;99.90;;;;;;5114565;28;19907;-77
2021/08/18 09:57:39;;;;;;;;;;;19.50;99.90;;;;;;5114374;28;19908;-78
2021/08/18 10:00:05;;;;;;;;;;;19.90;99.90;;;;;;5103789;28;19961;-78
2021/08/18 10:02:30;;;;;;;;;;;20.50;99.90;;;;;;5090318;28;20361;-78
2021/08/18 10:04:59;;;;;;;;;;;21.30;99.90;;;;;;5094229;28;19908;-78
2021/08/18 10:07:25;;;;;;;;;;;21.70;99.90;;;;;;5093883;28;19942;-78
2021/08/18 10:09:51;;;;;;;;;;;21.70;99.90;;;;;;5093753;28;19966;-77
2021/08/18 10:12:16;;;;;;;;;;;21.50;99.90;;;;;;5093945;28;20368;-78
2021/08/18 10:14:42;;;;;;;;;;;21.20;99.90;;;;;;5092489;28;20148;-78
2021/08/18 10:17:07;;;;;;;;;;;21.20;99.90;;;;;;5093425;28;19908;-78
2021/08/18 10:19:33;;;;;;;;;;;21.20;99.90;;;;;;5092299;28;19908;-78
2021/08/18 10:22:00;;;;;;;;;;;21.00;99.90;;;;;;5093782;28;19908;-78
2021/08/18 10:24:30;;;;;;;;;;;21.20;99.90;;;;;;5093643;28;19998;-78
2021/08/18 10:26:55;;;;;;;;;;;21.60;99.90;;;;;;5093446;28;20304;-78
2021/08/18 10:29:27;;;;;;;;;;;21.70;99.90;;;;;;5093712;28;19912;-78
2021/08/18 10:31:52;;;;;;;;;;;22.10;99.90;;;;;;5093441;28;19958;-78
2021/08/18 10:34:36;;;;;;;;;;;22.50;99.90;;;;;;5093156;28;19908;-78
2021/08/18 10:37:03;;;;;;;;;;;22.70;99.90;;;;;;5092499;28;19999;-78
2021/08/18 10:39:30;;;;;;;;;;;22.60;99.90;;;;;;5090607;28;19912;-78
2021/08/18 10:41:59;;;;;;;;;;;22.70;99.90;;;;;;5090163;28;19958;-78
2021/08/18 10:44:39;;;;;;;;;;;22.70;99.90;;;;;;5091846;28;20357;-78
2021/08/18 10:47:11;;;;;;;;;;;22.60;99.90;;;;;;5093108;28;20413;-78
2021/08/18 10:49:36;;;;;;;;;;;22.20;99.90;;;;;;5097421;28;19962;-78
2021/08/18 10:52:02;;;;;;;;;;;21.90;99.90;;;;;;5113020;28;20326;-78
2021/08/18 10:54:28;;;;;;;;;;;21.50;99.90;;;;;;5112539;28;19908;-79
2021/08/18 10:56:57;;;;;;;;;;;21.10;99.90;;;;;;5112487;28;19952;-78
2021/08/18 10:59:35;;;;;;;;;;;20.70;99.90;;;;;;5111811;28;20395;-78
2021/08/18 11:02:03;;;;;;;;;;;21.10;99.90;;;;;;5112437;28;19915;-78
2021/08/18 11:04:45;;;;;;;;;;;21.50;99.90;;;;;;5100579;28;20480;-78
2021/08/18 11:07:11;;;;;;;;;;;22.10;99.90;;;;;;5078715;28;19965;-77
2021/08/18 11:09:46;;;;;;;;;;;22.30;99.90;;;;;;5090276;28;20351;-77
2021/08/18 11:12:31;;;;;;;;;;;22.60;99.90;;;;;;5077334;28;19958;-76
2021/08/18 11:14:57;;;;;;;;;;;22.80;99.90;;;;;;5090135;28;19915;-77
2021/08/18 11:17:23;;;;;;;;;;;22.50;99.90;;;;;;5087986;28;19908;-76
2021/08/18 11:19:51;;;;;;;;;;;22.10;99.90;;;;;;5087019;28;19908;-76
2021/08/18 11:22:17;;;;;;;;;;;21.60;99.90;;;;;;5090854;28;19908;-76
2021/08/18 11:24:42;;;;;;;;;;;21.30;99.90;;;;;;5091300;28;20365;-76
2021/08/18 11:27:08;;;;;;;;;;;21.00;99.90;;;;;;5081869;28;19939;-77
2021/08/18 11:29:35;;;;;;;;;;;20.80;99.90;;;;;;5086315;28;19912;-76
2021/08/18 11:32:00;;;;;;;;;;;20.70;99.90;;;;;;5091259;28;19923;-76
2021/08/18 11:34:27;;;;;;;;;;;20.70;99.90;;;;;;5083967;28;20453;-77
2021/08/18 11:37:00;;;;;;;;;;;20.70;99.90;;;;;;5090941;28;19909;-76
2021/08/18 11:39:26;;;;;;;;;;;20.80;99.90;;;;;;5085586;28;19908;-76
2021/08/18 11:41:51;;;;;;;;;;;21.00;99.90;;;;;;5087017;28;19915;-78
2021/08/18 11:44:23;;;;;;;;;;;21.40;99.90;;;;;;5080736;28;19913;-77
2021/08/18 11:46:48;;;;;;;;;;;21.90;99.90;;;;;;5084546;28;19916;-77
2021/08/18 11:49:14;;;;;;;;;;;22.70;99.90;;;;;;5079875;28;19908;-77
2021/08/18 11:51:39;;;;;;;;;;;23.10;99.90;;;;;;5098919;28;19912;-77
2021/08/18 11:54:05;;;;;;;;;;;23.10;99.90;;;;;;5090205;28;19915;-76
2021/08/18 11:56:31;;;;;;;;;;;23.00;99.90;;;;;;5086568;28;19908;-76
2021/08/18 11:58:57;;;;;;;;;;;22.90;99.90;;;;;;5083227;28;19908;-76
2021/08/18 12:01:22;;;;;;;;;;;22.50;99.90;;;;;;5084370;28;19992;-77
2021/08/18 12:03:48;;;;;;;;;;;22.30;99.90;;;;;;5102018;28;20356;-76
2021/08/18 12:06:14;;;;;;;;;;;22.10;99.90;;;;;;5097762;28;19913;-77
2021/08/18 12:08:41;;;;;;;;;;;21.80;99.90;;;;;;5087624;28;19947;-77
2021/08/18 12:11:08;;;;;;;;;;;21.50;99.90;;;;;;5090490;28;19995;-76
2021/08/18 12:13:44;;;;;;;;;;;21.50;99.90;;;;;;5082794;28;20218;-77
2021/08/18 12:16:22;;;;;;;;;;;21.70;99.90;;;;;;5087302;28;19915;-77
2021/08/18 12:18:48;;;;;;;;;;;22.10;99.90;;;;;;5086561;28;19908;-77
2021/08/18 12:21:19;;;;;;;;;;;22.60;99.90;;;;;;5089053;28;19920;-76
2021/08/18 12:23:46;;;;;;;;;;;22.90;99.90;;;;;;5096312;28;19915;-77
2021/08/18 12:26:28;;;;;;;;;;;23.10;99.90;;;;;;5091053;28;19961;-77
2021/08/18 12:28:55;;;;;;;;;;;23.20;99.90;;;;;;5080571;28;19912;-77
2021/08/18 12:31:20;;;;;;;;;;;23.30;99.90;;;;;;5089585;28;19916;-77
2021/08/18 12:34:03;;;;;;;;;;;23.10;99.90;;;;;;5085987;28;20331;-77
2021/08/18 12:36:29;;;;;;;;;;;22.70;99.90;;;;;;5099888;28;19908;-77
2021/08/18 12:38:54;;;;;;;;;;;22.30;99.90;;;;;;5089449;28;19908;-77
2021/08/18 12:41:24;;;;;;;;;;;21.90;99.90;;;;;;5085760;28;19908;-78
2021/08/18 12:44:02;;;;;;;;;;;21.80;99.90;;;;;;5089881;28;19998;-76
2021/08/18 12:46:31;;;;;;;;;;;21.70;99.90;;;;;;5084993;28;19940;-77
2021/08/18 12:49:16;;;;;;;;;;;21.50;99.90;;;;;;5083132;28;19908;-78
2021/08/18 12:51:41;;;;;;;;;;;21.90;99.90;;;;;;5087779;28;19973;-76
2021/08/18 12:54:07;;;;;;;;;;;22.10;99.90;;;;;;5087255;28;19909;-76
2021/08/18 12:56:33;;;;;;;;;;;22.50;99.90;;;;;;5089047;28;19908;-77
2021/08/18 12:58:58;;;;;;;;;;;22.90;99.90;;;;;;5089527;28;19908;-76
2021/08/18 13:01:23;;;;;;;;;;;23.00;99.90;;;;;;5086414;28;19908;-77
2021/08/18 13:03:50;;;;;;;;;;;23.00;99.90;;;;;;5089218;28;19908;-77
2021/08/18 13:06:15;;;;;;;;;;;22.90;99.90;;;;;;5082397;28;19923;-77
2021/08/18 13:08:41;;;;;;;;;;;23.10;99.90;;;;;;5077056;28;19912;-77
2021/08/18 13:11:06;;;;;;;;;;;23.50;99.90;;;;;;5083700;28;19912;-77
2021/08/18 13:13:32;;;;;;;;;;;23.40;99.90;;;;;;5090098;28;19908;-77
2021/08/18 13:15:57;;;;;;;;;;;23.10;99.90;;;;;;5088233;28;19915;-77
2021/08/18 13:18:22;;;;;;;;;;;22.60;99.90;;;;;;5097130;28;19953;-77
2021/08/18 13:20:48;;;;;;;;;;;22.40;99.90;;;;;;5093221;28;19908;-76
2021/08/18 13:23:13;;;;;;;;;;;22.30;99.90;;;;;;5086686;28;20032;-76
2021/08/18 13:25:39;;;;;;;;;;;22.20;99.90;;;;;;5091209;28;19941;-76
2021/08/18 13:28:05;;;;;;;;;;;22.00;99.90;;;;;;5093666;28;20492;-76
2021/08/18 13:30:30;;;;;;;;;;;22.00;99.90;;;;;;5092569;28;20321;-76
2021/08/18 13:32:55;;;;;;;;;;;21.90;99.90;;;;;;5091745;28;20019;-76
2021/08/18 13:35:23;;;;;;;;;;;21.60;99.90;;;;;;5092672;28;19911;-76
2021/08/18 13:37:48;;;;;;;;;;;21.60;99.90;;;;;;5093086;28;20349;-76
2021/08/18 13:40:14;;;;;;;;;;;21.70;99.90;;;;;;5086052;28;19914;-76
2021/08/18 13:42:39;;;;;;;;;;;21.70;99.90;;;;;;5100637;28;19990;-77
2021/08/18 13:45:05;;;;;;;;;;;21.70;99.90;;;;;;5075079;28;19908;-78
2021/08/18 13:47:32;;;;;;;;;;;21.60;99.90;;;;;;5077311;28;20373;-76
2021/08/18 13:49:57;;;;;;;;;;;21.50;99.90;;;;;;5104303;28;20002;-76
2021/08/18 13:52:23;;;;;;;;;;;21.30;99.90;;;;;;5081549;28;20421;-76
2021/08/18 13:54:48;;;;;;;;;;;21.20;99.90;;;;;;5092919;28;19999;-76
2021/08/18 13:57:14;;;;;;;;;;;21.20;99.90;;;;;;5079646;28;19915;-77
2021/08/18 13:59:40;;;;;;;;;;;21.20;99.90;;;;;;5073267;28;19999;-76
2021/08/18 14:02:05;;;;;;;;;;;21.10;99.90;;;;;;5080654;28;19908;-76
2021/08/18 14:04:31;;;;;;;;;;;21.10;99.90;;;;;;5099245;28;20163;-76
2021/08/18 14:06:56;;;;;;;;;;;21.20;99.90;;;;;;5089579;28;19912;-76
2021/08/18 14:09:22;;;;;;;;;;;21.20;99.90;;;;;;5088317;28;19970;-76
2021/08/18 14:11:47;;;;;;;;;;;21.30;99.90;;;;;;5088355;28;19912;-76